createdAt,value
2023-02-08T00:00:30.566Z,100.00
2023-02-08T00:03:17.633Z,100.00
2023-02-08T00:05:44.808Z,100.00
2023-02-08T00:08:11.708Z,100.00
2023-02-08T00:10:39.279Z,100.00
2023-02-08T00:13:06.370Z,100.00
2023-02-08T00:15:33.611Z,100.00
2023-02-08T00:18:00.683Z,100.00
2023-02-08T00:20:27.853Z,100.00
2023-02-08T00:22:57.673Z,100.00
2023-02-08T00:25:24.875Z,100.00
2023-02-08T00:27:51.902Z,100.00
2023-02-08T00:30:19.247Z,100.00
2023-02-08T00:32:48.057Z,100.00
2023-02-08T00:35:15.234Z,100.00
2023-02-08T00:37:42.283Z,100.00
2023-02-08T00:40:10.221Z,100.00
2023-02-08T00:42:37.108Z,100.00
2023-02-08T00:45:04.518Z,100.00
2023-02-08T00:47:31.410Z,100.00
2023-02-08T00:49:58.573Z,100.00
2023-02-08T00:52:25.529Z,100.00
2023-02-08T00:54:52.885Z,100.00
2023-02-08T00:57:19.749Z,100.00
2023-02-08T00:59:47.131Z,100.00
2023-02-08T01:02:15.782Z,100.00
2023-02-08T01:04:45.505Z,100.00
2023-02-08T01:07:13.312Z,100.00
2023-02-08T01:09:40.563Z,100.00
2023-02-08T01:12:07.541Z,100.00
2023-02-08T01:14:34.861Z,100.00
2023-02-08T01:17:01.976Z,100.00
2023-02-08T01:19:29.089Z,100.00
2023-02-08T01:21:56.440Z,100.00
2023-02-08T01:24:26.649Z,100.00
2023-02-08T01:26:53.490Z,100.00
2023-02-08T01:29:20.738Z,100.00
2023-02-08T01:31:47.631Z,100.00
2023-02-08T01:34:14.785Z,100.00
2023-02-08T01:36:43.435Z,100.00
2023-02-08T01:39:11.293Z,100.00
2023-02-08T01:41:40.825Z,100.00
2023-02-08T01:44:13.585Z,100.00
2023-02-08T01:46:41.942Z,100.00
2023-02-08T01:49:15.641Z,100.00
2023-02-08T01:51:45.562Z,100.00
2023-02-08T01:54:14.343Z,100.00
2023-02-08T01:56:43.286Z,100.00
2023-02-08T01:59:17.266Z,100.00
2023-02-08T02:01:46.161Z,100.00
2023-02-08T02:04:13.659Z,100.00
2023-02-08T02:06:43.879Z,100.00
2023-02-08T02:09:17.177Z,100.00
2023-02-08T02:11:44.463Z,100.00
2023-02-08T02:14:12.294Z,100.00
2023-02-08T02:16:41.611Z,100.00
2023-02-08T02:19:15.014Z,100.00
2023-02-08T02:21:44.845Z,100.00
2023-02-08T02:24:12.015Z,100.00
2023-02-08T02:26:45.199Z,100.00
2023-02-08T02:29:18.043Z,100.00
2023-02-08T02:31:48.391Z,100.00
2023-02-08T02:34:26.332Z,100.00
2023-02-08T02:37:00.025Z,100.00
2023-02-08T02:39:27.123Z,100.00
2023-02-08T02:42:18.736Z,100.00
2023-02-08T02:45:02.911Z,100.00
2023-02-08T02:47:29.729Z,100.00
2023-02-08T02:50:02.668Z,100.00
2023-02-08T02:52:40.734Z,100.00
2023-02-08T02:55:13.971Z,100.00
2023-02-08T02:57:42.420Z,100.00
2023-02-08T03:00:10.686Z,100.00
2023-02-08T03:02:37.845Z,100.00
2023-02-08T03:05:06.800Z,100.00
2023-02-08T03:07:42.743Z,100.00
2023-02-08T03:10:45.520Z,100.00
2023-02-08T03:13:21.374Z,100.00
2023-02-08T03:16:00.510Z,100.00
2023-02-08T03:18:42.090Z,100.00
2023-02-08T03:21:17.992Z,100.00
2023-02-08T03:24:03.724Z,100.00
2023-02-08T03:26:39.778Z,100.00
2023-02-08T03:29:12.157Z,100.00
2023-02-08T03:31:47.717Z,100.00
2023-02-08T03:34:27.899Z,100.00
2023-02-08T03:37:01.590Z,100.00
2023-02-08T03:39:30.878Z,100.00
2023-02-08T03:42:00.527Z,100.00
2023-02-08T03:44:31.285Z,100.00
2023-02-08T03:47:13.604Z,100.00
2023-02-08T03:49:41.468Z,100.00
2023-02-08T03:52:09.608Z,100.00
2023-02-08T03:54:39.986Z,100.00
2023-02-08T03:57:27.509Z,100.00
2023-02-08T04:00:01.131Z,100.00
2023-02-08T04:02:29.978Z,100.00
2023-02-08T04:04:58.403Z,100.00
2023-02-08T04:07:25.608Z,100.00
2023-02-08T04:09:52.557Z,100.00
2023-02-08T04:12:19.793Z,100.00
2023-02-08T04:14:46.641Z,100.00
2023-02-08T04:17:13.815Z,100.00
2023-02-08T04:19:40.793Z,100.00
2023-02-08T04:22:07.928Z,100.00
2023-02-08T04:24:34.826Z,100.00
2023-02-08T04:27:02.728Z,100.00
2023-02-08T04:29:30.292Z,100.00
2023-02-08T04:31:57.557Z,100.00
2023-02-08T04:34:24.452Z,100.00
2023-02-08T04:36:51.635Z,100.00
2023-02-08T04:39:20.886Z,100.00
2023-02-08T04:41:50.419Z,100.00
2023-02-08T04:44:17.357Z,100.00
2023-02-08T04:46:44.566Z,100.00
2023-02-08T04:49:11.453Z,100.00
2023-02-08T04:51:38.820Z,100.00
2023-02-08T04:54:05.716Z,100.00
2023-02-08T04:56:33.022Z,100.00
2023-02-08T04:59:00.819Z,100.00
2023-02-08T05:01:28.018Z,100.00
2023-02-08T05:03:55.118Z,100.00
2023-02-08T05:06:22.382Z,100.00
2023-02-08T05:08:51.672Z,100.00
2023-02-08T05:11:25.559Z,100.00
2023-02-08T05:13:52.696Z,100.00
2023-02-08T05:16:23.280Z,100.00
2023-02-08T05:18:50.180Z,100.00
2023-02-08T05:21:17.371Z,100.00
2023-02-08T05:23:46.627Z,100.00
2023-02-08T05:26:14.063Z,100.00
2023-02-08T05:28:40.970Z,100.00
2023-02-08T05:31:12.395Z,100.00
2023-02-08T05:33:39.395Z,100.00
2023-02-08T05:36:06.743Z,100.00
2023-02-08T05:38:33.598Z,100.00
2023-02-08T05:41:01.117Z,100.00
2023-02-08T05:43:28.379Z,100.00
2023-02-08T05:45:58.290Z,100.00
2023-02-08T05:48:25.186Z,100.00
2023-02-08T05:50:52.390Z,100.00
2023-02-08T05:53:19.363Z,100.00
2023-02-08T05:55:48.646Z,100.00
2023-02-08T05:58:16.215Z,100.00
2023-02-08T06:00:45.684Z,100.00
2023-02-08T06:03:12.827Z,100.00
2023-02-08T06:05:42.244Z,100.00
2023-02-08T06:08:09.582Z,100.00
2023-02-08T06:10:36.866Z,100.00
2023-02-08T06:13:04.582Z,100.00
2023-02-08T06:15:31.808Z,100.00
2023-02-08T06:17:58.627Z,100.00
2023-02-08T06:20:25.812Z,100.00
2023-02-08T06:22:52.608Z,100.00
2023-02-08T06:25:19.788Z,100.00
2023-02-08T06:27:46.693Z,100.00
2023-02-08T06:30:14.156Z,100.00
2023-02-08T06:32:41.001Z,100.00
2023-02-08T06:35:08.272Z,100.00
2023-02-08T06:37:37.527Z,100.00
2023-02-08T06:40:05.309Z,100.00
2023-02-08T06:42:32.345Z,100.00
2023-02-08T06:45:02.120Z,100.00
2023-02-08T06:47:29.148Z,100.00
2023-02-08T06:49:56.428Z,100.00
2023-02-08T06:52:23.375Z,100.00
2023-02-08T06:54:50.588Z,100.00
2023-02-08T06:57:17.565Z,100.00
2023-02-08T06:59:45.454Z,100.00
2023-02-08T07:02:13.888Z,100.00
2023-02-08T07:04:41.150Z,100.00
2023-02-08T07:07:08.044Z,100.00
2023-02-08T07:09:36.096Z,100.00
2023-02-08T07:12:05.279Z,100.00
2023-02-08T07:14:33.571Z,100.00
2023-02-08T07:17:01.054Z,100.00
2023-02-08T07:19:28.844Z,100.00
2023-02-08T07:21:56.090Z,100.00
2023-02-08T07:24:24.168Z,94.84
2023-02-08T07:26:53.578Z,87.26
2023-02-08T07:29:20.892Z,81.62
2023-02-08T07:31:47.783Z,79.24
2023-02-08T07:34:17.088Z,73.78
2023-02-08T07:36:43.999Z,71.14
2023-02-08T07:39:11.164Z,71.40
2023-02-08T07:41:38.168Z,66.72
2023-02-08T07:44:05.362Z,66.47
2023-02-08T07:46:32.272Z,63.92
2023-02-08T07:48:59.523Z,65.68
2023-02-08T07:51:26.442Z,62.67
2023-02-08T07:53:53.667Z,62.89
2023-02-08T07:56:20.528Z,63.27
2023-02-08T07:58:50.192Z,60.81
2023-02-08T08:01:22.318Z,60.68
2023-02-08T08:03:51.368Z,58.49
2023-02-08T08:06:19.501Z,59.69
2023-02-08T08:08:47.749Z,57.74
2023-02-08T08:11:15.809Z,56.58
2023-02-08T08:13:43.157Z,54.00
2023-02-08T08:16:12.841Z,54.44
2023-02-08T08:18:42.795Z,53.29
2023-02-08T08:21:10.046Z,52.12
2023-02-08T08:23:37.719Z,53.09
2023-02-08T08:26:13.914Z,53.71
2023-02-08T08:28:41.478Z,54.70
2023-02-08T08:31:13.839Z,56.94
2023-02-08T08:33:41.291Z,55.84
2023-02-08T08:36:08.876Z,57.55
2023-02-08T08:38:37.250Z,62.25
2023-02-08T08:41:07.529Z,64.24
2023-02-08T08:43:34.722Z,65.74
2023-02-08T08:46:01.931Z,69.78
2023-02-08T08:48:29.324Z,73.56
2023-02-08T08:50:58.541Z,82.80
2023-02-08T08:53:26.051Z,88.59
2023-02-08T08:55:53.262Z,92.58
2023-02-08T08:58:20.476Z,90.90
2023-02-08T09:00:47.414Z,94.07
2023-02-08T09:03:15.113Z,96.29
2023-02-08T09:05:42.041Z,100.00
2023-02-08T09:08:09.301Z,100.00
2023-02-08T09:10:36.283Z,100.00
2023-02-08T09:13:03.530Z,100.00
2023-02-08T09:15:33.005Z,98.98
2023-02-08T09:18:05.647Z,98.20
2023-02-08T09:20:32.586Z,99.74
2023-02-08T09:23:00.065Z,98.29
2023-02-08T09:25:27.280Z,95.19
2023-02-08T09:27:54.540Z,93.19
2023-02-08T09:30:21.570Z,92.37
2023-02-08T09:32:48.732Z,90.50
2023-02-08T09:35:16.189Z,93.51
2023-02-08T09:37:43.392Z,95.04
2023-02-08T09:40:21.716Z,92.67
2023-02-08T09:42:54.955Z,96.92
2023-02-08T09:45:51.120Z,98.00
2023-02-08T09:48:36.184Z,100.00
2023-02-08T09:51:17.659Z,100.00
2023-02-08T09:53:50.426Z,100.00
2023-02-08T09:56:21.406Z,96.13
2023-02-08T09:58:52.389Z,98.22
2023-02-08T10:01:22.014Z,99.19
2023-02-08T10:03:50.402Z,97.89
2023-02-08T10:06:18.682Z,98.81
2023-02-08T10:08:48.027Z,100.00
2023-02-08T10:11:32.339Z,100.00
2023-02-08T10:14:04.970Z,100.00
2023-02-08T10:16:38.376Z,94.72
2023-02-08T10:19:17.217Z,100.00
2023-02-08T10:22:04.846Z,98.25
2023-02-08T10:24:50.863Z,100.00
2023-02-08T10:27:24.074Z,96.35
2023-02-08T10:29:57.880Z,95.77
2023-02-08T10:32:48.146Z,88.62
2023-02-08T10:35:20.132Z,91.52
2023-02-08T10:37:47.182Z,86.59
2023-02-08T10:40:21.122Z,89.45
2023-02-08T10:42:51.065Z,86.18
2023-02-08T10:45:24.541Z,86.25
2023-02-08T10:48:12.037Z,80.46
2023-02-08T10:50:39.337Z,82.09
2023-02-08T10:53:06.456Z,85.00
2023-02-08T10:55:39.591Z,78.85
2023-02-08T10:58:07.239Z,78.41
2023-02-08T11:00:37.143Z,80.23
2023-02-08T11:03:14.719Z,78.97
2023-02-08T11:05:42.849Z,80.55
2023-02-08T11:08:20.804Z,79.46
2023-02-08T11:11:07.896Z,79.14
2023-02-08T11:13:45.766Z,75.51
2023-02-08T11:16:20.223Z,74.08
2023-02-08T11:18:56.994Z,70.98
2023-02-08T11:21:24.185Z,71.31
2023-02-08T11:23:52.401Z,70.90
2023-02-08T11:26:19.633Z,69.65
2023-02-08T11:28:59.101Z,69.83
2023-02-08T11:31:26.712Z,70.96
2023-02-08T11:34:01.280Z,70.61
2023-02-08T11:36:32.136Z,69.58
2023-02-08T11:39:01.908Z,69.74
2023-02-08T11:41:29.553Z,69.85
2023-02-08T11:43:59.383Z,68.74
2023-02-08T11:46:28.692Z,65.65
2023-02-08T11:48:58.567Z,66.40
2023-02-08T11:51:31.263Z,67.51
2023-02-08T11:53:58.393Z,67.98
2023-02-08T11:56:30.346Z,67.52
2023-02-08T11:58:57.291Z,66.91
2023-02-08T12:01:32.039Z,67.45
2023-02-08T12:04:00.781Z,66.56
2023-02-08T12:06:40.740Z,68.26
2023-02-08T12:09:14.125Z,69.08
2023-02-08T12:11:43.473Z,68.59
2023-02-08T12:14:10.424Z,68.57
2023-02-08T12:16:48.486Z,68.04
2023-02-08T12:19:18.513Z,67.48
2023-02-08T12:21:47.116Z,69.41
2023-02-08T12:24:14.295Z,67.14
2023-02-08T12:26:51.585Z,66.67
2023-02-08T12:29:47.466Z,67.58
2023-02-08T12:32:18.497Z,68.74
2023-02-08T12:35:00.684Z,67.82
2023-02-08T12:37:46.614Z,68.07
2023-02-08T12:40:52.839Z,67.19
2023-02-08T12:43:23.197Z,68.11
2023-02-08T12:46:05.450Z,68.68
2023-02-08T12:48:51.533Z,68.47
2023-02-08T12:51:47.905Z,66.83
2023-02-08T12:54:17.878Z,67.24
2023-02-08T12:57:01.538Z,66.75
2023-02-08T12:59:29.516Z,67.59
2023-02-08T13:02:01.812Z,66.80
2023-02-08T13:04:39.766Z,66.59
2023-02-08T13:07:27.925Z,65.69
2023-02-08T13:10:02.673Z,65.55
2023-02-08T13:12:32.583Z,65.56
2023-02-08T13:15:28.559Z,66.14
2023-02-08T13:18:06.804Z,67.29
2023-02-08T13:20:52.990Z,66.70
2023-02-08T13:23:26.247Z,66.84
2023-02-08T13:25:56.121Z,68.19
2023-02-08T13:28:24.064Z,66.07
2023-02-08T13:31:08.767Z,66.51
2023-02-08T13:34:00.455Z,68.05
2023-02-08T13:36:33.216Z,69.98
2023-02-08T13:39:04.866Z,69.88
2023-02-08T13:41:36.150Z,69.91
2023-02-08T13:44:05.025Z,67.40
2023-02-08T13:46:37.506Z,66.91
2023-02-08T13:49:04.848Z,66.65
2023-02-08T13:51:32.044Z,66.58
2023-02-08T13:54:00.197Z,67.41
2023-02-08T13:56:44.006Z,68.27
2023-02-08T13:59:26.321Z,69.63
2023-02-08T14:02:11.802Z,70.09
2023-02-08T14:04:42.673Z,70.31
2023-02-08T14:07:09.879Z,71.15
2023-02-08T14:09:55.606Z,70.38
2023-02-08T14:12:27.225Z,71.29
2023-02-08T14:15:12.840Z,72.09
2023-02-08T14:17:42.450Z,72.68
2023-02-08T14:20:17.686Z,73.72
2023-02-08T14:22:50.769Z,73.92
2023-02-08T14:25:20.116Z,76.00
2023-02-08T14:27:53.563Z,75.97
2023-02-08T14:30:24.947Z,76.09
2023-02-08T14:32:54.452Z,77.09
2023-02-08T14:35:23.817Z,78.04
2023-02-08T14:38:10.997Z,79.32
2023-02-08T14:40:50.343Z,80.13
2023-02-08T14:43:20.626Z,80.46
2023-02-08T14:45:48.778Z,82.96
2023-02-08T14:48:19.175Z,84.57
2023-02-08T14:50:55.655Z,86.11
2023-02-08T14:53:31.015Z,87.00
2023-02-08T14:56:07.728Z,89.62
2023-02-08T14:58:36.738Z,91.77
2023-02-08T15:01:08.010Z,93.14
2023-02-08T15:03:35.409Z,94.51
2023-02-08T15:06:23.060Z,94.18
2023-02-08T15:08:54.530Z,96.53
2023-02-08T15:11:23.151Z,99.07
2023-02-08T15:13:51.412Z,100.00
2023-02-08T15:16:18.742Z,100.00
2023-02-08T15:18:47.590Z,100.00
2023-02-08T15:21:29.620Z,100.00
2023-02-08T15:24:00.977Z,100.00
2023-02-08T15:26:28.523Z,100.00
2023-02-08T15:28:56.176Z,100.00
2023-02-08T15:31:26.138Z,100.00
2023-02-08T15:33:54.440Z,100.00
2023-02-08T15:36:34.126Z,100.00
2023-02-08T15:39:03.768Z,100.00
2023-02-08T15:41:33.987Z,100.00
2023-02-08T15:44:02.457Z,100.00
2023-02-08T15:46:30.791Z,100.00
2023-02-08T15:48:59.249Z,100.00
2023-02-08T15:51:27.570Z,100.00
2023-02-08T15:53:55.848Z,100.00
2023-02-08T15:56:38.424Z,100.00
2023-02-08T15:59:13.101Z,100.00
2023-02-08T16:01:40.255Z,100.00
2023-02-08T16:04:12.487Z,100.00
2023-02-08T16:06:44.913Z,100.00
2023-02-08T16:09:30.848Z,100.00
2023-02-08T16:11:59.743Z,100.00
2023-02-08T16:14:32.846Z,100.00
2023-02-08T16:17:27.826Z,100.00
2023-02-08T16:19:55.117Z,100.00
2023-02-08T16:22:25.927Z,100.00
2023-02-08T16:24:55.942Z,100.00
2023-02-08T16:27:33.854Z,100.00
2023-02-08T16:30:03.596Z,100.00
2023-02-08T16:32:31.935Z,100.00
2023-02-08T16:35:01.804Z,100.00
2023-02-08T16:37:28.900Z,100.00
2023-02-08T16:39:59.480Z,100.00
2023-02-08T16:42:40.023Z,100.00
2023-02-08T16:45:12.967Z,100.00
2023-02-08T16:47:40.153Z,100.00
2023-02-08T16:50:08.657Z,100.00
2023-02-08T16:52:36.104Z,100.00
2023-02-08T16:55:07.301Z,100.00
2023-02-08T16:57:46.450Z,100.00
2023-02-08T17:00:19.459Z,100.00
2023-02-08T17:02:46.735Z,100.00
2023-02-08T17:05:14.660Z,100.00
2023-02-08T17:07:41.702Z,100.00
2023-02-08T17:10:16.735Z,100.00
2023-02-08T17:12:43.920Z,100.00
2023-02-08T17:15:11.298Z,100.00
2023-02-08T17:17:38.380Z,100.00
2023-02-08T17:20:14.372Z,100.00
2023-02-08T17:22:41.913Z,100.00
2023-02-08T17:25:09.560Z,100.00
2023-02-08T17:27:39.198Z,100.00
2023-02-08T17:30:15.078Z,100.00
2023-02-08T17:32:42.513Z,100.00
2023-02-08T17:35:15.815Z,100.00
2023-02-08T17:37:48.309Z,100.00
2023-02-08T17:40:17.307Z,100.00
2023-02-08T17:42:47.353Z,100.00
2023-02-08T17:45:15.853Z,100.00
2023-02-08T17:47:47.303Z,100.00
2023-02-08T17:50:15.782Z,100.00
2023-02-08T17:52:43.737Z,100.00
2023-02-08T17:55:12.453Z,100.00
2023-02-08T17:57:41.225Z,100.00
2023-02-08T18:00:13.061Z,100.00
2023-02-08T18:02:47.465Z,100.00
2023-02-08T18:05:16.664Z,100.00
2023-02-08T18:07:47.912Z,100.00
2023-02-08T18:10:16.289Z,100.00
2023-02-08T18:12:44.565Z,100.00
2023-02-08T18:15:14.645Z,100.00
2023-02-08T18:17:43.236Z,100.00
2023-02-08T18:20:11.916Z,100.00
2023-02-08T18:22:40.530Z,100.00
2023-02-08T18:25:13.151Z,100.00
2023-02-08T18:27:41.094Z,100.00
2023-02-08T18:30:10.231Z,100.00
2023-02-08T18:32:37.636Z,100.00
2023-02-08T18:35:07.783Z,100.00
2023-02-08T18:37:36.943Z,100.00
2023-02-08T18:40:11.001Z,100.00
2023-02-08T18:42:38.795Z,100.00
2023-02-08T18:45:07.092Z,100.00
2023-02-08T18:47:36.327Z,100.00
2023-02-08T18:50:05.372Z,100.00
2023-02-08T18:52:34.518Z,100.00
2023-02-08T18:55:04.794Z,100.00
2023-02-08T18:57:39.272Z,100.00
2023-02-08T19:00:11.107Z,100.00
2023-02-08T19:02:39.711Z,100.00
2023-02-08T19:05:09.987Z,100.00
2023-02-08T19:07:39.833Z,100.00
2023-02-08T19:10:08.387Z,100.00
2023-02-08T19:12:37.895Z,100.00
2023-02-08T19:15:06.379Z,100.00
2023-02-08T19:17:34.554Z,100.00
2023-02-08T19:20:07.284Z,100.00
2023-02-08T19:22:38.076Z,100.00
2023-02-08T19:25:06.806Z,100.00
2023-02-08T19:27:34.844Z,100.00
2023-02-08T19:30:03.903Z,100.00
2023-02-08T19:32:32.734Z,100.00
2023-02-08T19:35:04.316Z,100.00
2023-02-08T19:37:32.747Z,100.00
2023-02-08T19:40:01.120Z,100.00
2023-02-08T19:42:28.841Z,100.00
2023-02-08T19:44:57.227Z,100.00
2023-02-08T19:47:48.376Z,100.00
2023-02-08T19:50:22.558Z,100.00
2023-02-08T19:52:51.704Z,100.00
2023-02-08T19:55:23.950Z,100.00
2023-02-08T19:57:52.266Z,100.00
2023-02-08T20:00:24.983Z,100.00
2023-02-08T20:02:53.574Z,100.00
2023-02-08T20:05:26.362Z,100.00
2023-02-08T20:07:53.945Z,100.00
2023-02-08T20:10:24.784Z,100.00
2023-02-08T20:12:55.371Z,100.00
2023-02-08T20:15:23.997Z,100.00
2023-02-08T20:17:53.602Z,100.00
2023-02-08T20:20:22.472Z,100.00
2023-02-08T20:22:50.924Z,100.00
2023-02-08T20:25:19.260Z,100.00
2023-02-08T20:27:48.969Z,100.00
2023-02-08T20:30:20.416Z,100.00
2023-02-08T20:32:49.490Z,100.00
2023-02-08T20:35:17.412Z,100.00
2023-02-08T20:37:45.245Z,100.00
2023-02-08T20:40:14.628Z,100.00
2023-02-08T20:42:43.293Z,100.00
2023-02-08T20:45:12.323Z,100.00
2023-02-08T20:47:46.399Z,100.00
2023-02-08T20:50:19.075Z,100.00
2023-02-08T20:52:47.946Z,100.00
2023-02-08T20:55:19.405Z,100.00
2023-02-08T20:57:52.461Z,100.00
2023-02-08T21:00:27.906Z,100.00
2023-02-08T21:03:03.597Z,100.00
2023-02-08T21:05:32.727Z,100.00
2023-02-08T21:08:02.528Z,100.00
2023-02-08T21:10:29.969Z,100.00
2023-02-08T21:12:57.309Z,100.00
2023-02-08T21:15:25.143Z,100.00
2023-02-08T21:17:54.388Z,100.00
2023-02-08T21:20:22.154Z,100.00
2023-02-08T21:22:49.455Z,100.00
2023-02-08T21:25:17.385Z,100.00
2023-02-08T21:27:45.002Z,100.00
2023-02-08T21:30:12.511Z,100.00
2023-02-08T21:32:42.080Z,100.00
2023-02-08T21:35:09.615Z,100.00
2023-02-08T21:37:36.584Z,100.00
2023-02-08T21:40:04.434Z,100.00
2023-02-08T21:42:32.821Z,100.00
2023-02-08T21:45:00.236Z,100.00
2023-02-08T21:47:27.234Z,100.00
2023-02-08T21:50:13.525Z,100.00
2023-02-08T21:52:59.167Z,100.00
2023-02-08T21:55:26.671Z,100.00
2023-02-08T21:57:53.587Z,100.00
2023-02-08T22:00:21.065Z,100.00
2023-02-08T22:02:48.110Z,100.00
2023-02-08T22:05:15.648Z,100.00
2023-02-08T22:07:50.233Z,100.00
2023-02-08T22:10:19.449Z,100.00
2023-02-08T22:12:47.363Z,100.00
2023-02-08T22:15:16.453Z,100.00
2023-02-08T22:17:43.840Z,100.00
2023-02-08T22:20:11.830Z,100.00
2023-02-08T22:22:38.699Z,100.00
2023-02-08T22:25:06.145Z,100.00
2023-02-08T22:27:33.097Z,100.00
2023-02-08T22:30:00.686Z,100.00
2023-02-08T22:32:27.653Z,100.00
2023-02-08T22:34:54.888Z,100.00
2023-02-08T22:37:21.793Z,100.00
2023-02-08T22:39:49.023Z,100.00
2023-02-08T22:42:16.210Z,100.00
2023-02-08T22:44:44.182Z,100.00
2023-02-08T22:47:12.536Z,100.00
2023-02-08T22:49:40.184Z,100.00
2023-02-08T22:52:08.811Z,100.00
2023-02-08T22:54:36.193Z,100.00
2023-02-08T22:57:03.420Z,100.00
2023-02-08T22:59:30.689Z,100.00
2023-02-08T23:01:58.235Z,100.00
2023-02-08T23:04:29.020Z,100.00
2023-02-08T23:06:56.029Z,100.00
2023-02-08T23:09:23.178Z,100.00
2023-02-08T23:11:50.618Z,100.00
2023-02-08T23:14:18.160Z,100.00
2023-02-08T23:16:47.359Z,100.00
2023-02-08T23:19:15.562Z,100.00
2023-02-08T23:21:43.033Z,100.00
2023-02-08T23:24:10.852Z,100.00
2023-02-08T23:26:37.911Z,100.00
2023-02-08T23:29:07.418Z,100.00
2023-02-08T23:31:34.429Z,100.00
2023-02-08T23:34:01.755Z,100.00
2023-02-08T23:36:28.772Z,100.00
2023-02-08T23:38:56.046Z,100.00
2023-02-08T23:41:23.168Z,100.00
2023-02-08T23:43:51.179Z,100.00
2023-02-08T23:46:19.613Z,100.00
2023-02-08T23:48:47.813Z,100.00
2023-02-08T23:51:15.672Z,100.00
2023-02-08T23:53:43.098Z,100.00
2023-02-08T23:56:15.693Z,100.00
2023-02-08T23:58:43.818Z,100.00
